Terminal Aerodrome Forecast
Issued by NWS Chicago, IL

Home | Current Version | Previous Version | Text Only | Print | Product List | Glossary Off
Versions: 1 2 3 4 5 6 7 8 9 10 11 12 13 14 15 16 17 18 19 20 21 22 23 24 25 26 27 28 29 30 31 32 33

000
FTUS43 KLOT 281605 AAB
TAFRFD
TAF AMD
KRFD 281605Z 2816/2912 16007KT P6SM SCT050 BKN250
     FM282100 15009KT P6SM SCT050 BKN120
     FM290100 16006KT P6SM BKN050
      TEMPO 2904/2908 3SM TSRA SCT020 OVC050CB
     FM290800 23006KT 5SM BR BKN020=

USA.gov is the U.S. government's official web portal to all federal, state and local government web resources and services.